Weather observations for the past three days for
Auburn-Opelika Airport
Imperial (Metric)
Date Time (cdt) Wind (mph) Vis. (mi.) Weather Sky Cond. Temperature (ºF) Relative Humidity Wind Chill (°F) Heat Index (°F) Pressure Precipitation (in)
Air Dwpt 6 hour altimeter (in) sea level (mb) 1 hr 3 hr 6 hr
Max. Min.
06 02:56 S 5 10.00 Fair CLR 63 62.1 97% 29.94 1013.0
06 01:56 S 6 10.00 Fair CLR 64 62.1 93% 29.95 1013.4
06 00:56 S 8 10.00 Fair CLR 64.9 61 75 64.9 87% 29.96 1013.6
05 23:56 S 10 10.00 Fair CLR 66.9 60.1 79% 29.96 1013.6
05 22:56 S 13 10.00 Fair CLR 69.1 60.1 73% 29.96 1013.7
05 21:56 S 9 10.00 Fair CLR 70 59 68% 29.97 1013.6
05 20:56 S 7 10.00 Fair CLR 71.1 57.9 63% 29.96 1013.4
05 19:56 S 8 10.00 A Few Clouds FEW070 73 57.9 59% 29.94 1013.0
05 18:56 S 8 10.00 Fair CLR 75 57.9 80.1 73.9 55% 78 29.95 1013.0
05 17:56 SW 13 10.00 Partly Cloudy SCT055 77 57 50% 79 29.95 1013.1
05 16:56 S 13 10.00 Fair CLR 79 55.9 45% 80 29.93 1012.5
05 15:56 SW 12 10.00 A Few Clouds FEW055 79 57 47% 80 29.95 1013.1
05 14:56 S 12 G 18 10.00 Fair CLR 78.1 55.9 47% 79 29.97 1013.6
05 13:56 S 9 10.00 A Few Clouds FEW049 75 55.9 52% 78 29.99 1014.5
05 12:56 SW 8 10.00 Partly Cloudy SCT044 75 55.9 75.9 57 52% 78 30.01 1015.2
05 11:56 S 14 G 17 10.00 A Few Clouds FEW044 73.9 55 52% 30.02 1015.4
05 10:56 S 13 10.00 Fair CLR 72 53.1 52% 30.04 1016.1
05 09:56 Vrbl 7 10.00 Fair CLR 68 54 61% 30.05 1016.4
05 08:56 S 9 10.00 Fair CLR 64 52 65% 30.05 1016.4
05 07:56 S 12 G 17 10.00 Fair CLR 60.1 51.1 72% 30.03 1015.9
05 06:56 Calm 10.00 Fair CLR 57 53.1 61 51.1 87% 29.98 1014.3
05 05:56 NE 5 10.00 Fair CLR 52 48.9 89% 29.96 1013.7
05 04:56 N 5 10.00 Fair CLR 52 48.9 89% 29.98 1014.2
05 03:56 Calm 10.00 Fair CLR 55.9 48.9 77% 29.99 1014.4
05 02:56 Vrbl 3 10.00 Fair CLR 57.9 48 70% 29.99 1014.5
05 01:56 Calm 10.00 Fair CLR 59 48 67% 29.99 1014.3
05 00:56 S 6 10.00 Fair CLR 60.1 46.9 73.9 60.1 62% 30 1014.7
04 23:56 S 5 10.00 Fair CLR 61 46.9 60% 30 1014.6
04 22:56 S 6 10.00 Fair CLR 64 46.9 54% 29.99 1014.3
04 21:56 SE 3 10.00 Fair CLR 66 46.9 50% 29.99 1014.5
04 20:56 Calm 10.00 Fair CLR 66.9 48 51% 29.99 1014.4
04 19:56 S 5 10.00 Fair CLR 69.1 46 44% 29.97 1014.1
04 18:56 S 6 10.00 Fair CLR 73.9 45 79 73.9 36% 29.97 1014.0
04 17:56 S 8 10.00 Fair CLR 77 46.9 35% 78 29.97 1014.1
04 16:56 S 6 10.00 Fair CLR 77 46 33% 78 29.97 1014.2
04 15:56 SW 9 10.00 Fair CLR 75.9 45 33% 77 29.98 1014.2
04 14:56 Vrbl 3 10.00 Fair CLR 77 46 33% 78 30 1015.0
04 13:56 Vrbl 3 10.00 Fair CLR 75.9 42.1 30% 77 30.02 1015.8
04 12:56 S 8 10.00 Fair CLR 75 45 75 54 34% 77 30.05 1016.6
04 11:56 NW 6 10.00 Fair CLR 73.9 46 37% 30.06 1017.1
04 10:56 SW 3 10.00 Fair CLR 71.1 45 39% 30.08 1017.9
04 09:56 Vrbl 5 10.00 Fair CLR 68 44.1 42% 30.09 1018.1
04 08:56 S 6 10.00 Fair CLR 66 44.1 45% 30.1 1018.4
04 07:56 S 5 10.00 Fair CLR 61 44.1 54% 30.09 1018.2
04 06:56 Calm 10.00 Fair CLR 54 46 54 48 75% 30.09 1018.1
04 05:56 Calm 10.00 Fair CLR 48.9 43 80% 30.07 1017.4
04 04:56 Calm 10.00 Fair CLR 48 43 83% 30.07 1017.7
04 03:56 Calm 10.00 Fair CLR 50 43 77% 30.07 1017.7
04 02:56 Calm 10.00 Fair CLR 51.1 41 69% 30.08 1017.7
04 01:56 Calm 10.00 Fair CLR 51.1 44.1 77% 30.08 1018.1
04 00:56 N 3 10.00 Fair CLR 52 43 66.9 52 72% 30.1 1018.7
03 23:56 Calm 10.00 Fair CLR 53.1 44.1 72% 30.11 1019.0
03 22:56 NW 3 10.00 Fair CLR 54 43 67% 30.11 1019.0
03 21:56 NW 3 10.00 Fair CLR 59 41 51% 30.1 1018.8
03 20:56 NW 3 10.00 Fair CLR 62.1 39 43% 30.09 1018.4
03 19:56 W 5 10.00 Fair CLR 64 37.9 38% 30.08 1017.8
03 18:56 W 7 10.00 Fair CLR 66.9 37 72 66.9 33% 30.06 1017.2
03 17:56 W 7 10.00 Fair CLR 69.1 37.9 32% 30.07 1017.3
03 16:56 NW 8 10.00 Fair CLR 71.1 37.9 30% 30.07 1017.3
03 15:56 W 13 G 17 10.00 Fair CLR 71.1 39 31% 30.08 1018.1
03 14:56 NW 10 G 18 10.00 Fair CLR 70 37 30% 30.1 1018.6
03 13:56 W 10 G 18 10.00 Fair CLR 70 36 29% 30.12 1019.5
03 12:56 W 9 10.00 Fair CLR 68 37 68 50 32% 30.15 1020.1
03 11:56 N 8 G 18 10.00 Fair CLR 66 37 34% 30.17 1020.9
03 10:56 NW 7 10.00 Fair CLR 64.9 37.9 37% 30.18 1021.3
03 09:56 Vrbl 3 10.00 Fair CLR 63 37.9 40% 30.18 1021.3
03 08:56 Vrbl 5 10.00 Fair CLR 60.1 42.1 52% 30.18 1021.1
03 07:56 N 6 10.00 Fair CLR 55.9 43 62% 30.17 1020.8
03 06:56 N 6 10.00 Fair CLR 48.9 43 51.1 46 80% 47 30.15 1020.2
03 05:56 NE 8 10.00 Fair CLR 46.9 39.9 77% 44 30.12 1019.4
03 04:56 N 6 10.00 Fair CLR 46 42.1 86% 44 30.12 1019.1
03 03:56 N 5 10.00 Fair CLR 48 41 77% 47 30.11 1018.9
Date Time (cdt) Wind (mph) Vis. (mi.) Weather Sky Cond. Air Dwpt Max. Min. Relative Humidity Wind Chill (°F) Heat Index (°F) altimeter (in) sea level (mb) 1 hr 3 hr 6 hr
6 hour
Temperature (ºF) Pressure Precipitation (in)